sensor_id;sensor_type;location;lat;lon;timestamp;temperature;humidity
14739;DHT22;7461;52.440;13.540;2023-05-23T00:02:03;17.40;90.30
14739;DHT22;7461;52.440;13.540;2023-05-23T00:04:32;17.40;90.20
14739;DHT22;7461;52.440;13.540;2023-05-23T00:07:01;17.50;88.40
14739;DHT22;7461;52.440;13.540;2023-05-23T00:09:28;17.50;89.90
14739;DHT22;7461;52.440;13.540;2023-05-23T00:11:56;17.50;91.70
14739;DHT22;7461;52.440;13.540;2023-05-23T00:14:24;17.50;90.40
14739;DHT22;7461;52.440;13.540;2023-05-23T00:16:51;17.40;91.40
14739;DHT22;7461;52.440;13.540;2023-05-23T00:19:19;17.40;91.20
14739;DHT22;7461;52.440;13.540;2023-05-23T00:21:47;17.30;89.60
14739;DHT22;7461;52.440;13.540;2023-05-23T00:24:14;17.30;90.30
14739;DHT22;7461;52.440;13.540;2023-05-23T00:26:43;17.30;89.90
14739;DHT22;7461;52.440;13.540;2023-05-23T00:29:11;17.30;89.10
14739;DHT22;7461;52.440;13.540;2023-05-23T00:31:41;17.30;88.80
14739;DHT22;7461;52.440;13.540;2023-05-23T00:34:11;17.30;91.70
14739;DHT22;7461;52.440;13.540;2023-05-23T00:36:37;17.30;91.50
14739;DHT22;7461;52.440;13.540;2023-05-23T00:39:06;17.20;91.20
14739;DHT22;7461;52.440;13.540;2023-05-23T00:41:33;17.20;89.50
14739;DHT22;7461;52.440;13.540;2023-05-23T00:44:00;17.20;88.80
14739;DHT22;7461;52.440;13.540;2023-05-23T00:46:30;17.10;91.30
14739;DHT22;7461;52.440;13.540;2023-05-23T00:48:57;17.10;91.30
14739;DHT22;7461;52.440;13.540;2023-05-23T00:51:24;17.10;90.60
14739;DHT22;7461;52.440;13.540;2023-05-23T00:53:52;17.10;93.40
14739;DHT22;7461;52.440;13.540;2023-05-23T00:56:19;17.10;92.80
14739;DHT22;7461;52.440;13.540;2023-05-23T00:58:46;17.10;90.80
14739;DHT22;7461;52.440;13.540;2023-05-23T01:01:14;17.00;90.90
14739;DHT22;7461;52.440;13.540;2023-05-23T01:03:43;17.00;91.00
14739;DHT22;7461;52.440;13.540;2023-05-23T01:06:13;17.00;91.30
14739;DHT22;7461;52.440;13.540;2023-05-23T01:08:40;16.90;90.90
14739;DHT22;7461;52.440;13.540;2023-05-23T01:11:13;16.90;92.50
14739;DHT22;7461;52.440;13.540;2023-05-23T01:13:45;16.90;91.10
14739;DHT22;7461;52.440;13.540;2023-05-23T01:16:17;16.90;91.20
14739;DHT22;7461;52.440;13.540;2023-05-23T01:18:52;16.90;91.80
14739;DHT22;7461;52.440;13.540;2023-05-23T01:21:23;16.80;91.40
14739;DHT22;7461;52.440;13.540;2023-05-23T01:24:20;16.80;92.10
14739;DHT22;7461;52.440;13.540;2023-05-23T01:27:02;16.80;91.70
14739;DHT22;7461;52.440;13.540;2023-05-23T01:29:36;16.80;92.40
14739;DHT22;7461;52.440;13.540;2023-05-23T01:32:06;16.80;94.60
14739;DHT22;7461;52.440;13.540;2023-05-23T01:34:36;16.80;92.20
14739;DHT22;7461;52.440;13.540;2023-05-23T01:37:07;16.80;92.10
14739;DHT22;7461;52.440;13.540;2023-05-23T01:39:38;16.80;94.20
14739;DHT22;7461;52.440;13.540;2023-05-23T01:42:06;16.80;95.30
14739;DHT22;7461;52.440;13.540;2023-05-23T01:44:35;16.90;93.70
14739;DHT22;7461;52.440;13.540;2023-05-23T01:47:03;16.90;93.50
14739;DHT22;7461;52.440;13.540;2023-05-23T01:49:32;16.90;95.50
14739;DHT22;7461;52.440;13.540;2023-05-23T01:52:01;16.80;93.90
14739;DHT22;7461;52.440;13.540;2023-05-23T01:54:28;16.90;93.70
14739;DHT22;7461;52.440;13.540;2023-05-23T01:56:57;16.80;94.80
14739;DHT22;7461;52.440;13.540;2023-05-23T01:59:25;16.80;92.80
14739;DHT22;7461;52.440;13.540;2023-05-23T02:01:53;16.80;92.90
14739;DHT22;7461;52.440;13.540;2023-05-23T02:04:20;16.80;93.00
14739;DHT22;7461;52.440;13.540;2023-05-23T02:06:47;16.80;93.10
14739;DHT22;7461;52.440;13.540;2023-05-23T02:09:14;16.80;94.40
14739;DHT22;7461;52.440;13.540;2023-05-23T02:11:42;16.90;96.80
14739;DHT22;7461;52.440;13.540;2023-05-23T02:14:09;16.80;93.50
14739;DHT22;7461;52.440;13.540;2023-05-23T02:16:37;16.80;93.80
14739;DHT22;7461;52.440;13.540;2023-05-23T02:19:05;16.80;94.60
14739;DHT22;7461;52.440;13.540;2023-05-23T02:21:32;16.80;94.70
14739;DHT22;7461;52.440;13.540;2023-05-23T02:23:59;16.80;94.80
14739;DHT22;7461;52.440;13.540;2023-05-23T02:26:26;16.80;96.00
14739;DHT22;7461;52.440;13.540;2023-05-23T02:28:53;16.80;96.10
14739;DHT22;7461;52.440;13.540;2023-05-23T02:31:20;16.80;96.10
14739;DHT22;7461;52.440;13.540;2023-05-23T02:33:48;16.80;96.50
14739;DHT22;7461;52.440;13.540;2023-05-23T02:36:16;16.70;95.70
14739;DHT22;7461;52.440;13.540;2023-05-23T02:38:43;16.70;95.70
14739;DHT22;7461;52.440;13.540;2023-05-23T02:41:10;16.70;96.50
14739;DHT22;7461;52.440;13.540;2023-05-23T02:43:37;16.60;95.80
14739;DHT22;7461;52.440;13.540;2023-05-23T02:46:04;16.70;96.20
14739;DHT22;7461;52.440;13.540;2023-05-23T02:48:31;16.60;95.20
14739;DHT22;7461;52.440;13.540;2023-05-23T02:50:58;16.70;97.10
14739;DHT22;7461;52.440;13.540;2023-05-23T02:53:26;16.60;96.40
14739;DHT22;7461;52.440;13.540;2023-05-23T02:55:53;16.60;96.30
14739;DHT22;7461;52.440;13.540;2023-05-23T02:58:20;16.50;95.90
14739;DHT22;7461;52.440;13.540;2023-05-23T03:00:47;16.50;95.90
14739;DHT22;7461;52.440;13.540;2023-05-23T03:03:14;16.50;95.70
14739;DHT22;7461;52.440;13.540;2023-05-23T03:05:41;16.50;95.40
14739;DHT22;7461;52.440;13.540;2023-05-23T03:08:08;16.50;96.60
14739;DHT22;7461;52.440;13.540;2023-05-23T03:10:36;16.50;96.20
14739;DHT22;7461;52.440;13.540;2023-05-23T03:13:03;16.40;96.00
14739;DHT22;7461;52.440;13.540;2023-05-23T03:15:30;16.40;96.30
14739;DHT22;7461;52.440;13.540;2023-05-23T03:17:57;16.40;97.10
14739;DHT22;7461;52.440;13.540;2023-05-23T03:20:24;16.40;96.70
14739;DHT22;7461;52.440;13.540;2023-05-23T03:22:53;16.30;96.90
14739;DHT22;7461;52.440;13.540;2023-05-23T03:25:23;16.30;96.10
14739;DHT22;7461;52.440;13.540;2023-05-23T03:27:54;16.30;96.60
14739;DHT22;7461;52.440;13.540;2023-05-23T03:30:21;16.20;98.50
14739;DHT22;7461;52.440;13.540;2023-05-23T03:32:48;16.30;99.30
14739;DHT22;7461;52.440;13.540;2023-05-23T03:35:16;16.30;96.80
14739;DHT22;7461;52.440;13.540;2023-05-23T03:37:42;16.20;97.20
14739;DHT22;7461;52.440;13.540;2023-05-23T03:40:09;16.20;99.00
14739;DHT22;7461;52.440;13.540;2023-05-23T03:42:38;16.20;98.70
14739;DHT22;7461;52.440;13.540;2023-05-23T03:45:07;16.20;97.50
14739;DHT22;7461;52.440;13.540;2023-05-23T03:47:34;16.20;98.50
14739;DHT22;7461;52.440;13.540;2023-05-23T03:50:01;16.10;99.00
14739;DHT22;7461;52.440;13.540;2023-05-23T03:52:28;16.10;99.00
14739;DHT22;7461;52.440;13.540;2023-05-23T03:54:55;16.10;99.90
14739;DHT22;7461;52.440;13.540;2023-05-23T03:57:22;16.10;98.80
14739;DHT22;7461;52.440;13.540;2023-05-23T03:59:49;16.00;99.00
14739;DHT22;7461;52.440;13.540;2023-05-23T04:02:17;16.00;99.90
14739;DHT22;7461;52.440;13.540;2023-05-23T04:04:45;16.00;99.90
14739;DHT22;7461;52.440;13.540;2023-05-23T04:07:13;15.90;99.90
14739;DHT22;7461;52.440;13.540;2023-05-23T04:09:40;16.00;99.90
14739;DHT22;7461;52.440;13.540;2023-05-23T04:12:07;15.90;99.90
14739;DHT22;7461;52.440;13.540;2023-05-23T04:14:35;15.90;99.90
14739;DHT22;7461;52.440;13.540;2023-05-23T04:17:04;15.90;99.90
14739;DHT22;7461;52.440;13.540;2023-05-23T04:19:34;15.90;99.90
14739;DHT22;7461;52.440;13.540;2023-05-23T04:22:01;15.90;99.90
14739;DHT22;7461;52.440;13.540;2023-05-23T04:24:28;15.90;99.90
14739;DHT22;7461;52.440;13.540;2023-05-23T04:26:55;16.00;99.90
14739;DHT22;7461;52.440;13.540;2023-05-23T04:29:23;16.00;99.90
14739;DHT22;7461;52.440;13.540;2023-05-23T04:31:51;16.10;99.90
14739;DHT22;7461;52.440;13.540;2023-05-23T04:34:19;16.10;99.90
14739;DHT22;7461;52.440;13.540;2023-05-23T04:36:48;16.10;99.90
14739;DHT22;7461;52.440;13.540;2023-05-23T04:39:15;16.10;99.90
14739;DHT22;7461;52.440;13.540;2023-05-23T04:41:42;16.00;99.90
14739;DHT22;7461;52.440;13.540;2023-05-23T04:44:09;16.00;99.90
14739;DHT22;7461;52.440;13.540;2023-05-23T04:46:37;16.00;99.90
14739;DHT22;7461;52.440;13.540;2023-05-23T04:49:06;16.00;99.90
14739;DHT22;7461;52.440;13.540;2023-05-23T04:51:33;16.00;99.90
14739;DHT22;7461;52.440;13.540;2023-05-23T04:54:02;16.00;99.90
14739;DHT22;7461;52.440;13.540;2023-05-23T04:56:29;16.10;99.90
14739;DHT22;7461;52.440;13.540;2023-05-23T04:58:57;16.00;99.90
14739;DHT22;7461;52.440;13.540;2023-05-23T05:01:24;16.00;99.90
14739;DHT22;7461;52.440;13.540;2023-05-23T05:03:51;16.00;99.90
14739;DHT22;7461;52.440;13.540;2023-05-23T05:06:18;16.00;99.90
14739;DHT22;7461;52.440;13.540;2023-05-23T05:08:46;16.00;99.90
14739;DHT22;7461;52.440;13.540;2023-05-23T05:11:14;16.00;99.90
14739;DHT22;7461;52.440;13.540;2023-05-23T05:13:41;16.00;99.90
14739;DHT22;7461;52.440;13.540;2023-05-23T05:16:08;16.00;99.90
14739;DHT22;7461;52.440;13.540;2023-05-23T05:18:35;16.00;99.90
14739;DHT22;7461;52.440;13.540;2023-05-23T05:21:02;16.00;99.90
14739;DHT22;7461;52.440;13.540;2023-05-23T05:23:30;16.00;99.90
14739;DHT22;7461;52.440;13.540;2023-05-23T05:25:58;16.00;99.90
14739;DHT22;7461;52.440;13.540;2023-05-23T05:28:26;16.00;99.90
14739;DHT22;7461;52.440;13.540;2023-05-23T05:30:53;16.00;99.90
14739;DHT22;7461;52.440;13.540;2023-05-23T05:33:20;16.00;99.90
14739;DHT22;7461;52.440;13.540;2023-05-23T05:35:48;16.00;99.90
14739;DHT22;7461;52.440;13.540;2023-05-23T05:38:15;16.00;99.90
14739;DHT22;7461;52.440;13.540;2023-05-23T05:40:42;16.00;99.90
14739;DHT22;7461;52.440;13.540;2023-05-23T05:43:09;16.00;99.90
14739;DHT22;7461;52.440;13.540;2023-05-23T05:45:37;16.00;99.90
14739;DHT22;7461;52.440;13.540;2023-05-23T05:48:04;16.00;99.90
14739;DHT22;7461;52.440;13.540;2023-05-23T05:50:32;15.90;99.90
14739;DHT22;7461;52.440;13.540;2023-05-23T05:52:59;15.90;99.90
14739;DHT22;7461;52.440;13.540;2023-05-23T05:55:26;15.90;99.90
14739;DHT22;7461;52.440;13.540;2023-05-23T05:57:52;16.00;99.90
14739;DHT22;7461;52.440;13.540;2023-05-23T06:00:20;16.00;99.90
14739;DHT22;7461;52.440;13.540;2023-05-23T06:02:49;16.00;99.90
14739;DHT22;7461;52.440;13.540;2023-05-23T06:05:16;15.90;99.90
14739;DHT22;7461;52.440;13.540;2023-05-23T06:07:43;15.90;99.90
14739;DHT22;7461;52.440;13.540;2023-05-23T06:10:10;15.90;99.90
14739;DHT22;7461;52.440;13.540;2023-05-23T06:12:38;15.90;99.90
14739;DHT22;7461;52.440;13.540;2023-05-23T06:15:06;15.90;99.90
14739;DHT22;7461;52.440;13.540;2023-05-23T06:17:34;15.90;99.90
14739;DHT22;7461;52.440;13.540;2023-05-23T06:20:03;15.90;99.90
14739;DHT22;7461;52.440;13.540;2023-05-23T06:22:30;15.90;99.90
14739;DHT22;7461;52.440;13.540;2023-05-23T06:24:57;15.90;99.90
14739;DHT22;7461;52.440;13.540;2023-05-23T06:27:24;15.90;99.90
14739;DHT22;7461;52.440;13.540;2023-05-23T06:29:51;15.90;99.90
14739;DHT22;7461;52.440;13.540;2023-05-23T06:32:18;16.00;99.90
14739;DHT22;7461;52.440;13.540;2023-05-23T06:34:45;16.00;99.90
14739;DHT22;7461;52.440;13.540;2023-05-23T06:37:13;16.00;99.90
14739;DHT22;7461;52.440;13.540;2023-05-23T06:39:41;16.10;99.90
14739;DHT22;7461;52.440;13.540;2023-05-23T06:42:08;16.10;99.90
14739;DHT22;7461;52.440;13.540;2023-05-23T06:44:34;16.10;99.90
14739;DHT22;7461;52.440;13.540;2023-05-23T06:47:01;16.10;99.90
14739;DHT22;7461;52.440;13.540;2023-05-23T06:49:28;16.20;99.90
14739;DHT22;7461;52.440;13.540;2023-05-23T06:51:55;16.30;99.90
14739;DHT22;7461;52.440;13.540;2023-05-23T06:54:24;16.30;99.90
14739;DHT22;7461;52.440;13.540;2023-05-23T06:56:50;16.40;99.90
14739;DHT22;7461;52.440;13.540;2023-05-23T06:59:18;16.40;99.90
14739;DHT22;7461;52.440;13.540;2023-05-23T07:01:45;16.50;99.90
14739;DHT22;7461;52.440;13.540;2023-05-23T07:04:12;16.60;99.90
14739;DHT22;7461;52.440;13.540;2023-05-23T07:06:39;16.70;99.90
14739;DHT22;7461;52.440;13.540;2023-05-23T07:09:06;16.80;99.90
14739;DHT22;7461;52.440;13.540;2023-05-23T07:11:34;16.80;99.90
14739;DHT22;7461;52.440;13.540;2023-05-23T07:14:01;16.90;99.90
14739;DHT22;7461;52.440;13.540;2023-05-23T07:16:28;17.00;99.90
14739;DHT22;7461;52.440;13.540;2023-05-23T07:18:55;17.10;99.90
14739;DHT22;7461;52.440;13.540;2023-05-23T07:21:22;17.30;99.90
14739;DHT22;7461;52.440;13.540;2023-05-23T07:23:49;17.30;99.90
14739;DHT22;7461;52.440;13.540;2023-05-23T07:26:16;17.50;99.90
14739;DHT22;7461;52.440;13.540;2023-05-23T07:28:44;17.60;99.90
14739;DHT22;7461;52.440;13.540;2023-05-23T07:31:11;17.70;99.90
14739;DHT22;7461;52.440;13.540;2023-05-23T07:33:39;17.90;99.90
14739;DHT22;7461;52.440;13.540;2023-05-23T07:36:06;18.00;99.90
14739;DHT22;7461;52.440;13.540;2023-05-23T07:38:33;18.20;99.90
14739;DHT22;7461;52.440;13.540;2023-05-23T07:41:00;18.30;99.90
14739;DHT22;7461;52.440;13.540;2023-05-23T07:43:27;18.50;99.90
14739;DHT22;7461;52.440;13.540;2023-05-23T07:45:55;18.50;99.90
14739;DHT22;7461;52.440;13.540;2023-05-23T07:48:22;18.60;99.90
14739;DHT22;7461;52.440;13.540;2023-05-23T07:50:51;18.60;99.90
14739;DHT22;7461;52.440;13.540;2023-05-23T07:53:20;18.70;99.90
14739;DHT22;7461;52.440;13.540;2023-05-23T07:55:47;18.80;99.90
14739;DHT22;7461;52.440;13.540;2023-05-23T07:58:14;18.80;99.60
14739;DHT22;7461;52.440;13.540;2023-05-23T08:00:41;18.90;98.70
14739;DHT22;7461;52.440;13.540;2023-05-23T08:03:10;19.00;98.70
14739;DHT22;7461;52.440;13.540;2023-05-23T08:05:37;19.20;99.20
14739;DHT22;7461;52.440;13.540;2023-05-23T08:08:04;19.30;97.80
14739;DHT22;7461;52.440;13.540;2023-05-23T08:10:31;19.50;97.90
14739;DHT22;7461;52.440;13.540;2023-05-23T08:12:58;19.60;96.60
14739;DHT22;7461;52.440;13.540;2023-05-23T08:15:31;19.70;93.80
14739;DHT22;7461;52.440;13.540;2023-05-23T08:17:58;19.80;94.10
14739;DHT22;7461;52.440;13.540;2023-05-23T08:20:26;19.80;93.20
14739;DHT22;7461;52.440;13.540;2023-05-23T08:22:57;19.70;94.10
14739;DHT22;7461;52.440;13.540;2023-05-23T08:25:24;19.80;94.00
14739;DHT22;7461;52.440;13.540;2023-05-23T08:27:54;19.80;93.30
14739;DHT22;7461;52.440;13.540;2023-05-23T08:30:22;19.80;92.40
14739;DHT22;7461;52.440;13.540;2023-05-23T08:32:50;19.90;94.80
14739;DHT22;7461;52.440;13.540;2023-05-23T08:35:17;19.90;92.90
14739;DHT22;7461;52.440;13.540;2023-05-23T08:37:45;20.00;91.80
14739;DHT22;7461;52.440;13.540;2023-05-23T08:40:14;20.10;93.90
14739;DHT22;7461;52.440;13.540;2023-05-23T08:42:44;20.30;91.90
14739;DHT22;7461;52.440;13.540;2023-05-23T08:45:11;20.40;92.70
14739;DHT22;7461;52.440;13.540;2023-05-23T08:47:41;20.50;91.10
14739;DHT22;7461;52.440;13.540;2023-05-23T08:50:11;20.50;90.50
14739;DHT22;7461;52.440;13.540;2023-05-23T08:52:42;20.70;91.50
14739;DHT22;7461;52.440;13.540;2023-05-23T08:55:12;21.00;91.60
14739;DHT22;7461;52.440;13.540;2023-05-23T08:57:39;21.00;91.20
14739;DHT22;7461;52.440;13.540;2023-05-23T09:00:09;21.10;91.70
14739;DHT22;7461;52.440;13.540;2023-05-23T09:02:39;21.20;91.80
14739;DHT22;7461;52.440;13.540;2023-05-23T09:05:07;21.10;91.50
14739;DHT22;7461;52.440;13.540;2023-05-23T09:07:35;21.00;91.10
14739;DHT22;7461;52.440;13.540;2023-05-23T09:10:03;20.80;91.30
14739;DHT22;7461;52.440;13.540;2023-05-23T09:12:33;20.80;91.70
14739;DHT22;7461;52.440;13.540;2023-05-23T09:15:01;20.90;92.00
14739;DHT22;7461;52.440;13.540;2023-05-23T09:17:30;20.80;91.80
14739;DHT22;7461;52.440;13.540;2023-05-23T09:19:58;21.00;92.10
14739;DHT22;7461;52.440;13.540;2023-05-23T09:22:25;21.20;93.60
14739;DHT22;7461;52.440;13.540;2023-05-23T09:24:53;21.30;92.40
14739;DHT22;7461;52.440;13.540;2023-05-23T09:27:20;21.40;93.30
14739;DHT22;7461;52.440;13.540;2023-05-23T09:29:49;21.70;93.70
14739;DHT22;7461;52.440;13.540;2023-05-23T09:32:17;22.00;93.40
14739;DHT22;7461;52.440;13.540;2023-05-23T09:34:54;22.20;93.50
14739;DHT22;7461;52.440;13.540;2023-05-23T09:37:21;22.30;93.40
14739;DHT22;7461;52.440;13.540;2023-05-23T09:39:49;22.40;93.30
14739;DHT22;7461;52.440;13.540;2023-05-23T09:42:20;22.40;94.30
14739;DHT22;7461;52.440;13.540;2023-05-23T09:44:50;22.60;94.10
14739;DHT22;7461;52.440;13.540;2023-05-23T09:47:17;22.60;93.70
14739;DHT22;7461;52.440;13.540;2023-05-23T09:49:45;22.70;94.30
14739;DHT22;7461;52.440;13.540;2023-05-23T09:52:12;22.70;94.80
14739;DHT22;7461;52.440;13.540;2023-05-23T09:54:39;22.60;94.90
14739;DHT22;7461;52.440;13.540;2023-05-23T09:57:09;22.60;94.20
14739;DHT22;7461;52.440;13.540;2023-05-23T09:59:39;22.60;95.30
14739;DHT22;7461;52.440;13.540;2023-05-23T10:02:10;22.80;95.60
14739;DHT22;7461;52.440;13.540;2023-05-23T10:04:38;23.00;94.10
14739;DHT22;7461;52.440;13.540;2023-05-23T10:07:11;22.80;93.50
14739;DHT22;7461;52.440;13.540;2023-05-23T10:09:41;22.60;92.50
14739;DHT22;7461;52.440;13.540;2023-05-23T10:15:13;22.30;93.60
14739;DHT22;7461;52.440;13.540;2023-05-23T10:17:55;22.20;94.20
14739;DHT22;7461;52.440;13.540;2023-05-23T10:20:25;22.30;94.50
14739;DHT22;7461;52.440;13.540;2023-05-23T10:22:54;22.30;93.40
14739;DHT22;7461;52.440;13.540;2023-05-23T10:25:22;22.40;93.50
14739;DHT22;7461;52.440;13.540;2023-05-23T10:27:52;22.60;93.40
14739;DHT22;7461;52.440;13.540;2023-05-23T10:30:19;22.60;94.60
14739;DHT22;7461;52.440;13.540;2023-05-23T10:32:47;22.70;94.70
14739;DHT22;7461;52.440;13.540;2023-05-23T10:35:22;22.70;94.50
14739;DHT22;7461;52.440;13.540;2023-05-23T10:37:56;22.50;94.80
14739;DHT22;7461;52.440;13.540;2023-05-23T10:40:32;22.40;96.40
14739;DHT22;7461;52.440;13.540;2023-05-23T10:43:05;22.30;97.60
14739;DHT22;7461;52.440;13.540;2023-05-23T10:45:39;22.40;97.60
14739;DHT22;7461;52.440;13.540;2023-05-23T10:48:20;22.40;98.60
14739;DHT22;7461;52.440;13.540;2023-05-23T10:51:02;22.40;98.30
14739;DHT22;7461;52.440;13.540;2023-05-23T10:53:31;22.40;98.50
14739;DHT22;7461;52.440;13.540;2023-05-23T10:55:58;22.40;99.30
14739;DHT22;7461;52.440;13.540;2023-05-23T10:58:25;22.20;99.60
14739;DHT22;7461;52.440;13.540;2023-05-23T11:00:56;22.10;99.90
14739;DHT22;7461;52.440;13.540;2023-05-23T11:03:34;21.80;99.90
14739;DHT22;7461;52.440;13.540;2023-05-23T11:06:01;21.60;99.90
14739;DHT22;7461;52.440;13.540;2023-05-23T11:08:36;21.40;99.90
14739;DHT22;7461;52.440;13.540;2023-05-23T11:11:04;21.40;99.90
14739;DHT22;7461;52.440;13.540;2023-05-23T11:13:54;21.20;99.90
14739;DHT22;7461;52.440;13.540;2023-05-23T11:16:28;21.20;99.90
14739;DHT22;7461;52.440;13.540;2023-05-23T11:19:22;21.10;99.90
14739;DHT22;7461;52.440;13.540;2023-05-23T11:21:53;21.20;99.90
14739;DHT22;7461;52.440;13.540;2023-05-23T11:27:29;21.20;99.90
14739;DHT22;7461;52.440;13.540;2023-05-23T11:30:01;21.20;99.90
14739;DHT22;7461;52.440;13.540;2023-05-23T11:32:29;21.10;99.90
14739;DHT22;7461;52.440;13.540;2023-05-23T11:35:00;21.10;99.90
14739;DHT22;7461;52.440;13.540;2023-05-23T11:37:28;21.10;99.90
14739;DHT22;7461;52.440;13.540;2023-05-23T11:39:55;21.00;99.90
14739;DHT22;7461;52.440;13.540;2023-05-23T11:42:22;20.90;99.90
14739;DHT22;7461;52.440;13.540;2023-05-23T11:44:50;20.70;99.90
14739;DHT22;7461;52.440;13.540;2023-05-23T11:47:17;20.50;99.90
14739;DHT22;7461;52.440;13.540;2023-05-23T11:49:46;20.50;99.90
14739;DHT22;7461;52.440;13.540;2023-05-23T11:52:45;20.50;99.90
14739;DHT22;7461;52.440;13.540;2023-05-23T11:55:16;20.40;99.90
14739;DHT22;7461;52.440;13.540;2023-05-23T11:57:43;20.40;99.90
14739;DHT22;7461;52.440;13.540;2023-05-23T12:00:11;20.30;99.90
14739;DHT22;7461;52.440;13.540;2023-05-23T12:02:39;20.20;99.90
14739;DHT22;7461;52.440;13.540;2023-05-23T12:05:07;20.00;99.90
14739;DHT22;7461;52.440;13.540;2023-05-23T12:07:34;20.00;99.90
14739;DHT22;7461;52.440;13.540;2023-05-23T12:10:04;19.90;99.90
14739;DHT22;7461;52.440;13.540;2023-05-23T12:12:31;19.70;99.90
14739;DHT22;7461;52.440;13.540;2023-05-23T12:14:58;19.60;99.90
14739;DHT22;7461;52.440;13.540;2023-05-23T12:17:26;19.60;99.90
14739;DHT22;7461;52.440;13.540;2023-05-23T12:19:53;19.60;99.90
14739;DHT22;7461;52.440;13.540;2023-05-23T12:22:23;19.40;99.90
14739;DHT22;7461;52.440;13.540;2023-05-23T12:24:52;19.30;99.90
14739;DHT22;7461;52.440;13.540;2023-05-23T12:27:26;19.30;99.90
14739;DHT22;7461;52.440;13.540;2023-05-23T12:30:04;19.10;99.90
14739;DHT22;7461;52.440;13.540;2023-05-23T12:32:31;19.10;99.90
14739;DHT22;7461;52.440;13.540;2023-05-23T12:34:58;19.10;99.90
14739;DHT22;7461;52.440;13.540;2023-05-23T12:37:26;19.10;99.90
14739;DHT22;7461;52.440;13.540;2023-05-23T12:39:54;19.10;99.90
14739;DHT22;7461;52.440;13.540;2023-05-23T12:42:22;19.20;99.90
14739;DHT22;7461;52.440;13.540;2023-05-23T12:44:52;19.20;99.90
14739;DHT22;7461;52.440;13.540;2023-05-23T12:47:19;19.20;99.90
14739;DHT22;7461;52.440;13.540;2023-05-23T12:49:46;19.10;99.90
14739;DHT22;7461;52.440;13.540;2023-05-23T12:52:13;19.10;99.90
14739;DHT22;7461;52.440;13.540;2023-05-23T12:54:40;19.10;99.90
14739;DHT22;7461;52.440;13.540;2023-05-23T12:57:07;19.20;99.90
14739;DHT22;7461;52.440;13.540;2023-05-23T12:59:35;19.10;99.90
14739;DHT22;7461;52.440;13.540;2023-05-23T13:02:02;19.10;99.90
14739;DHT22;7461;52.440;13.540;2023-05-23T13:04:29;19.10;99.90
14739;DHT22;7461;52.440;13.540;2023-05-23T13:06:56;19.10;99.90
14739;DHT22;7461;52.440;13.540;2023-05-23T13:09:23;19.00;99.90
14739;DHT22;7461;52.440;13.540;2023-05-23T13:11:50;19.00;99.90
14739;DHT22;7461;52.440;13.540;2023-05-23T13:14:17;18.90;99.90
14739;DHT22;7461;52.440;13.540;2023-05-23T13:16:45;18.80;99.90
14739;DHT22;7461;52.440;13.540;2023-05-23T13:19:12;18.80;99.90
14739;DHT22;7461;52.440;13.540;2023-05-23T13:21:39;18.80;99.90
14739;DHT22;7461;52.440;13.540;2023-05-23T13:24:06;18.80;99.90
14739;DHT22;7461;52.440;13.540;2023-05-23T13:26:40;18.80;99.90
14739;DHT22;7461;52.440;13.540;2023-05-23T13:29:07;18.80;99.90
14739;DHT22;7461;52.440;13.540;2023-05-23T13:31:34;18.80;99.90
14739;DHT22;7461;52.440;13.540;2023-05-23T13:34:02;18.80;99.90
14739;DHT22;7461;52.440;13.540;2023-05-23T13:36:29;18.80;99.90
14739;DHT22;7461;52.440;13.540;2023-05-23T13:38:56;18.80;99.90
14739;DHT22;7461;52.440;13.540;2023-05-23T13:41:57;18.80;99.90
14739;DHT22;7461;52.440;13.540;2023-05-23T13:44:24;18.80;99.90
14739;DHT22;7461;52.440;13.540;2023-05-23T13:46:51;18.80;99.90
14739;DHT22;7461;52.440;13.540;2023-05-23T13:49:19;18.80;99.90
14739;DHT22;7461;52.440;13.540;2023-05-23T13:51:46;18.70;99.90
14739;DHT22;7461;52.440;13.540;2023-05-23T13:54:14;18.60;99.90
14739;DHT22;7461;52.440;13.540;2023-05-23T13:56:41;18.60;99.90
14739;DHT22;7461;52.440;13.540;2023-05-23T13:59:08;18.60;99.90
14739;DHT22;7461;52.440;13.540;2023-05-23T14:01:35;18.50;99.90
14739;DHT22;7461;52.440;13.540;2023-05-23T14:04:02;18.50;99.90
14739;DHT22;7461;52.440;13.540;2023-05-23T14:06:30;18.40;99.90
14739;DHT22;7461;52.440;13.540;2023-05-23T14:08:58;18.40;99.90
14739;DHT22;7461;52.440;13.540;2023-05-23T14:11:25;18.30;99.90
14739;DHT22;7461;52.440;13.540;2023-05-23T14:13:52;18.30;99.90
14739;DHT22;7461;52.440;13.540;2023-05-23T14:16:19;18.20;99.90
14739;DHT22;7461;52.440;13.540;2023-05-23T14:18:46;18.20;99.90
14739;DHT22;7461;52.440;13.540;2023-05-23T14:21:13;18.20;99.90
14739;DHT22;7461;52.440;13.540;2023-05-23T14:23:42;18.20;99.90
14739;DHT22;7461;52.440;13.540;2023-05-23T14:26:09;18.20;99.90
14739;DHT22;7461;52.440;13.540;2023-05-23T14:28:36;18.20;99.90
14739;DHT22;7461;52.440;13.540;2023-05-23T14:31:03;18.20;99.90
14739;DHT22;7461;52.440;13.540;2023-05-23T14:33:30;18.30;99.90
14739;DHT22;7461;52.440;13.540;2023-05-23T14:35:57;18.20;99.90
14739;DHT22;7461;52.440;13.540;2023-05-23T14:38:24;18.10;99.90
14739;DHT22;7461;52.440;13.540;2023-05-23T14:40:52;18.10;99.90
14739;DHT22;7461;52.440;13.540;2023-05-23T14:43:20;18.10;99.90
14739;DHT22;7461;52.440;13.540;2023-05-23T14:45:47;18.00;99.90
14739;DHT22;7461;52.440;13.540;2023-05-23T14:48:14;18.00;99.90
14739;DHT22;7461;52.440;13.540;2023-05-23T14:50:41;18.00;99.90
14739;DHT22;7461;52.440;13.540;2023-05-23T14:53:08;18.00;99.90
14739;DHT22;7461;52.440;13.540;2023-05-23T14:55:35;18.00;99.90
14739;DHT22;7461;52.440;13.540;2023-05-23T14:58:03;18.00;99.90
14739;DHT22;7461;52.440;13.540;2023-05-23T15:00:30;17.90;99.90
14739;DHT22;7461;52.440;13.540;2023-05-23T15:02:58;18.00;99.90
14739;DHT22;7461;52.440;13.540;2023-05-23T15:05:24;17.90;99.90
14739;DHT22;7461;52.440;13.540;2023-05-23T15:07:51;17.90;99.90
14739;DHT22;7461;52.440;13.540;2023-05-23T15:10:18;17.80;99.90
14739;DHT22;7461;52.440;13.540;2023-05-23T15:12:46;17.80;99.90
14739;DHT22;7461;52.440;13.540;2023-05-23T15:15:14;17.80;99.90
14739;DHT22;7461;52.440;13.540;2023-05-23T15:17:47;17.70;99.90
14739;DHT22;7461;52.440;13.540;2023-05-23T15:20:14;17.70;99.90
14739;DHT22;7461;52.440;13.540;2023-05-23T15:22:41;17.60;99.90
14739;DHT22;7461;52.440;13.540;2023-05-23T15:25:09;17.60;99.90
14739;DHT22;7461;52.440;13.540;2023-05-23T15:27:36;17.60;99.90
14739;DHT22;7461;52.440;13.540;2023-05-23T15:30:04;17.50;99.90
14739;DHT22;7461;52.440;13.540;2023-05-23T15:32:32;17.30;99.90
14739;DHT22;7461;52.440;13.540;2023-05-23T15:34:59;17.10;99.90
14739;DHT22;7461;52.440;13.540;2023-05-23T15:37:26;16.90;99.90
14739;DHT22;7461;52.440;13.540;2023-05-23T15:39:53;16.80;99.90
14739;DHT22;7461;52.440;13.540;2023-05-23T15:42:20;16.80;99.90
14739;DHT22;7461;52.440;13.540;2023-05-23T15:44:47;16.70;99.90